Bookmark and Share
Track history (hours):
 

Peary Spirit

Last reported at 2014-Apr-14 16:34 UTC. Time now 2014-Apr-17 15:45 UTC.
Position N 58°12' E 005°44'.

Length 249 m; draft 9.5 m.

Type: Tanker. MMSI: 311027600.

NotesDate/timePositionNaut miles runAvg speedWind from/ knotsBaromVisibWave heightAir tempDewpointWater temp
2014-Apr-14 16:34N 58°12' E 005°44'1212.1
2014-Apr-14 15:33N 58°04' E 006°01'9311.7
2014-Apr-14 07:33N 57°50' E 008°55'9210.2
2014-Apr-13 22:31N 57°41' E 011°47'0 0.0
2014-Apr-13 21:31N 57°41' E 011°47'0 0.0
2014-Apr-13 20:31N 57°41' E 011°47'0 0.0
2014-Apr-13 19:31N 57°41' E 011°47'0 0.0
2014-Apr-13 18:31N 57°41' E 011°47'0 0.0
2014-Apr-13 17:31N 57°41' E 011°47'0 0.0
2014-Apr-13 16:31N 57°41' E 011°47'0 0.0
2014-Apr-13 15:31N 57°41' E 011°47'0 0.0
2014-Apr-13 14:31N 57°41' E 011°47'0 0.0
2014-Apr-13 13:31N 57°41' E 011°47'0 0.0
2014-Apr-13 12:31N 57°41' E 011°47'0 0.0
2014-Apr-13 11:31N 57°41' E 011°47'0 0.0
2014-Apr-13 10:31N 57°41' E 011°47'0 0.0
2014-Apr-13 09:31N 57°41' E 011°47'0 0.0
2014-Apr-13 08:31N 57°41' E 011°47'0 0.0
2014-Apr-13 07:31N 57°41' E 011°47'0 0.0
2014-Apr-13 06:31N 57°41' E 011°47'0 0.0
2014-Apr-13 05:31N 57°41' E 011°47'0 0.0
2014-Apr-13 04:31N 57°41' E 011°47'0 0.0
2014-Apr-13 03:31N 57°41' E 011°47'0 0.0
2014-Apr-13 02:31N 57°41' E 011°47'0 0.1
2014-Apr-13 01:33N 57°41' E 011°47'4 3.9
2014-Apr-13 00:33N 57°38' E 011°42'6 6.3
2014-Apr-12 23:33N 57°38' E 011°30'1312.7
2014-Apr-12 22:33N 57°46' E 011°13'1313.2
2014-Apr-12 21:33N 57°55' E 010°54'1412.0
2014-Apr-12 20:24N 57°58' E 010°28'1213.9
2014-Apr-12 19:34N 57°56' E 010°07'13712.5
2014-Apr-12 08:33N 58°04' E 005°48'1313.0
2014-Apr-12 07:31N 58°12' E 005°29'1213.0
2014-Apr-12 06:33N 58°21' E 005°11'  
2014-Apr-08 19:33N 52°05' E 003°45'10 9.8
2014-Apr-08 18:33N 52°01' E 003°60'8 6.3
2014-Apr-08 17:22N 51°56' E 004°10'0 0.0
2014-Apr-08 16:31N 51°56' E 004°10'0 0.0
2014-Apr-08 15:28N 51°56' E 004°10'0 0.0
2014-Apr-08 14:31N 51°56' E 004°10'0 0.0
2014-Apr-08 13:19N 51°56' E 004°10'0 0.0
2014-Apr-08 12:28N 51°56' E 004°10'0 0.0
2014-Apr-08 11:31N 51°56' E 004°10'0 0.0
2014-Apr-08 10:31N 51°56' E 004°10'0 0.0
2014-Apr-08 09:25N 51°56' E 004°10'0 0.0
2014-Apr-08 08:28N 51°56' E 004°10'0 0.0
2014-Apr-08 07:28N 51°56' E 004°10'0 0.0
2014-Apr-08 06:28N 51°56' E 004°10'0 0.0
2014-Apr-08 05:28N 51°56' E 004°10'0 0.0
2014-Apr-08 04:31N 51°56' E 004°10'0 0.0
2014-Apr-08 03:31N 51°56' E 004°10'0 0.0
2014-Apr-08 02:28N 51°56' E 004°10'0 0.0
2014-Apr-08 01:25N 51°56' E 004°10'0 0.0
2014-Apr-08 00:28N 51°56' E 004°10'0 0.0
2014-Apr-07 23:31N 51°56' E 004°10'0 0.0
2014-Apr-07 22:13N 51°56' E 004°10'0 0.0
2014-Apr-07 21:04N 51°56' E 004°10'0 0.0
2014-Apr-07 20:07N 51°56' E 004°10'0 0.0
2014-Apr-07 19:22N 51°56' E 004°10'0 0.0
2014-Apr-07 17:28N 51°56' E 004°10'0 0.0
2014-Apr-07 16:07N 51°56' E 004°10'0 0.0
2014-Apr-07 15:33N 51°56' E 004°10'2 2.0
2014-Apr-07 14:32N 51°58' E 004°07'9 8.8
2014-Apr-07 13:34N 52°00' E 003°54'3911.5
2014-Apr-07 10:12N 51°50' E 002°54'42812.2
2014-Apr-05 23:09N 58°56' E 003°60'  

Dump ship's entire track history

sailing weather and tide predictions

Peary Spirit — C6YM3 — position and weather